sensor_id;sensor_type;location;lat;lon;timestamp;pressure;altitude;pressure_sealevel;temperature;humidity
57442;BME280;43284;47.042;15.498;2022-08-05T00:00:33;97145.72;;;19.24;78.23
57442;BME280;43284;47.042;15.498;2022-08-05T00:03:00;97142.47;;;19.21;79.32
57442;BME280;43284;47.042;15.498;2022-08-05T00:05:28;97142.88;;;19.16;78.40
57442;BME280;43284;47.042;15.498;2022-08-05T00:07:55;97140.72;;;19.10;78.58
57442;BME280;43284;47.042;15.498;2022-08-05T00:10:22;97136.66;;;19.06;77.87
57442;BME280;43284;47.042;15.498;2022-08-05T00:12:50;97144.34;;;19.09;78.24
57442;BME280;43284;47.042;15.498;2022-08-05T00:15:17;97138.59;;;19.04;77.56
57442;BME280;43284;47.042;15.498;2022-08-05T00:17:44;97136.72;;;18.94;78.18
57442;BME280;43284;47.042;15.498;2022-08-05T00:20:11;97135.28;;;18.90;77.72
57442;BME280;43284;47.042;15.498;2022-08-05T00:22:39;97136.38;;;18.88;78.32
57442;BME280;43284;47.042;15.498;2022-08-05T00:25:06;97137.97;;;18.79;78.15
57442;BME280;43284;47.042;15.498;2022-08-05T00:27:33;97137.84;;;18.81;79.10
57442;BME280;43284;47.042;15.498;2022-08-05T00:30:01;97128.22;;;18.80;78.39
57442;BME280;43284;47.042;15.498;2022-08-05T00:32:28;97131.09;;;18.77;78.76
57442;BME280;43284;47.042;15.498;2022-08-05T00:34:55;97124.47;;;18.71;79.40
57442;BME280;43284;47.042;15.498;2022-08-05T00:37:22;97130.88;;;18.68;79.40
57442;BME280;43284;47.042;15.498;2022-08-05T00:39:50;97126.91;;;18.63;79.54
57442;BME280;43284;47.042;15.498;2022-08-05T00:42:37;97124.25;;;18.63;80.70
57442;BME280;43284;47.042;15.498;2022-08-05T00:45:09;97125.69;;;18.67;80.79
57442;BME280;43284;47.042;15.498;2022-08-05T00:47:36;97127.06;;;18.61;80.17
57442;BME280;43284;47.042;15.498;2022-08-05T00:50:03;97118.41;;;18.59;80.29
57442;BME280;43284;47.042;15.498;2022-08-05T00:52:31;97117.56;;;18.59;80.40
57442;BME280;43284;47.042;15.498;2022-08-05T00:54:58;97120.56;;;18.54;80.34
57442;BME280;43284;47.042;15.498;2022-08-05T00:57:25;97115.91;;;18.46;80.68
57442;BME280;43284;47.042;15.498;2022-08-05T00:59:53;97118.22;;;18.40;80.59
57442;BME280;43284;47.042;15.498;2022-08-05T01:02:21;97120.13;;;18.38;81.37
57442;BME280;43284;47.042;15.498;2022-08-05T01:04:48;97115.69;;;18.38;80.87
57442;BME280;43284;47.042;15.498;2022-08-05T01:07:16;97107.16;;;18.35;82.39
57442;BME280;43284;47.042;15.498;2022-08-05T01:09:43;97115.09;;;18.35;81.95
57442;BME280;43284;47.042;15.498;2022-08-05T01:12:17;97108.13;;;18.33;81.21
57442;BME280;43284;47.042;15.498;2022-08-05T01:15:05;97109.47;;;18.28;81.41
57442;BME280;43284;47.042;15.498;2022-08-05T01:17:59;97114.53;;;18.20;81.82
57442;BME280;43284;47.042;15.498;2022-08-05T01:21:01;97120.66;;;18.20;82.06
57442;BME280;43284;47.042;15.498;2022-08-05T01:24:10;97116.69;;;18.15;82.08
57442;BME280;43284;47.042;15.498;2022-08-05T01:29:43;97109.59;;;18.15;82.01
57442;BME280;43284;47.042;15.498;2022-08-05T01:32:15;97118.59;;;18.12;82.09
57442;BME280;43284;47.042;15.498;2022-08-05T01:34:53;97112.63;;;18.10;81.68
57442;BME280;43284;47.042;15.498;2022-08-05T01:37:38;97113.22;;;18.03;81.80
57442;BME280;43284;47.042;15.498;2022-08-05T01:40:09;97111.88;;;17.97;82.26
57442;BME280;43284;47.042;15.498;2022-08-05T01:42:39;97114.44;;;17.87;82.40
57442;BME280;43284;47.042;15.498;2022-08-05T01:45:07;97113.09;;;17.82;82.54
57442;BME280;43284;47.042;15.498;2022-08-05T01:47:36;97111.41;;;17.81;83.22
57442;BME280;43284;47.042;15.498;2022-08-05T01:50:05;97111.88;;;17.75;83.45
57442;BME280;43284;47.042;15.498;2022-08-05T01:52:36;97106.59;;;17.75;83.21
57442;BME280;43284;47.042;15.498;2022-08-05T01:55:10;97103.13;;;17.74;82.91
57442;BME280;43284;47.042;15.498;2022-08-05T01:57:42;97105.66;;;17.76;82.57
57442;BME280;43284;47.042;15.498;2022-08-05T02:00:11;97106.22;;;17.79;82.24
57442;BME280;43284;47.042;15.498;2022-08-05T02:02:48;97101.09;;;17.78;82.49
57442;BME280;43284;47.042;15.498;2022-08-05T02:05:19;97101.41;;;17.73;82.68
57442;BME280;43284;47.042;15.498;2022-08-05T02:07:49;97100.72;;;17.71;83.04
57442;BME280;43284;47.042;15.498;2022-08-05T02:10:17;97092.66;;;17.73;82.96
57442;BME280;43284;47.042;15.498;2022-08-05T02:12:52;97100.94;;;17.68;83.18
57442;BME280;43284;47.042;15.498;2022-08-05T02:15:39;97092.91;;;17.69;83.50
57442;BME280;43284;47.042;15.498;2022-08-05T02:18:26;97090.16;;;17.71;82.75
57442;BME280;43284;47.042;15.498;2022-08-05T02:23:50;97089.53;;;17.67;83.10
57442;BME280;43284;47.042;15.498;2022-08-05T02:26:24;97087.25;;;17.63;83.91
57442;BME280;43284;47.042;15.498;2022-08-05T02:28:55;97089.28;;;17.59;83.56
57442;BME280;43284;47.042;15.498;2022-08-05T02:31:28;97087.63;;;17.58;83.56
57442;BME280;43284;47.042;15.498;2022-08-05T02:34:02;97084.25;;;17.45;83.14
57442;BME280;43284;47.042;15.498;2022-08-05T02:36:34;97089.53;;;17.45;84.48
57442;BME280;43284;47.042;15.498;2022-08-05T02:39:03;97076.81;;;17.39;84.11
57442;BME280;43284;47.042;15.498;2022-08-05T02:41:32;97075.72;;;17.30;85.05
57442;BME280;43284;47.042;15.498;2022-08-05T02:44:05;97070.66;;;17.27;84.52
57442;BME280;43284;47.042;15.498;2022-08-05T02:46:39;97075.19;;;17.25;84.98
57442;BME280;43284;47.042;15.498;2022-08-05T02:49:08;97079.91;;;17.21;84.88
57442;BME280;43284;47.042;15.498;2022-08-05T02:51:37;97080.38;;;17.26;84.15
57442;BME280;43284;47.042;15.498;2022-08-05T02:54:06;97077.84;;;17.25;84.50
57442;BME280;43284;47.042;15.498;2022-08-05T02:56:34;97074.38;;;17.24;85.01
57442;BME280;43284;47.042;15.498;2022-08-05T02:59:03;97080.25;;;17.17;84.63
57442;BME280;43284;47.042;15.498;2022-08-05T03:01:34;97076.63;;;17.18;84.55
57442;BME280;43284;47.042;15.498;2022-08-05T03:04:08;97077.00;;;17.13;85.12
57442;BME280;43284;47.042;15.498;2022-08-05T03:06:38;97076.88;;;17.15;85.23
57442;BME280;43284;47.042;15.498;2022-08-05T03:09:07;97072.69;;;17.12;85.13
57442;BME280;43284;47.042;15.498;2022-08-05T03:11:41;97073.88;;;17.08;84.56
57442;BME280;43284;47.042;15.498;2022-08-05T03:14:12;97078.19;;;17.09;85.22
57442;BME280;43284;47.042;15.498;2022-08-05T03:16:40;97074.56;;;16.99;85.43
57442;BME280;43284;47.042;15.498;2022-08-05T03:19:08;97071.91;;;16.99;85.47
57442;BME280;43284;47.042;15.498;2022-08-05T03:21:35;97068.56;;;16.97;85.24
57442;BME280;43284;47.042;15.498;2022-08-05T03:24:02;97073.84;;;16.97;85.03
57442;BME280;43284;47.042;15.498;2022-08-05T03:26:30;97072.16;;;16.96;85.28
57442;BME280;43284;47.042;15.498;2022-08-05T03:28:58;97066.88;;;16.96;85.46
57442;BME280;43284;47.042;15.498;2022-08-05T03:31:26;97062.44;;;16.96;85.66
57442;BME280;43284;47.042;15.498;2022-08-05T03:33:54;97067.50;;;16.99;85.51
57442;BME280;43284;47.042;15.498;2022-08-05T03:36:21;97071.22;;;16.97;85.72
57442;BME280;43284;47.042;15.498;2022-08-05T03:38:48;97063.28;;;16.97;86.04
57442;BME280;43284;47.042;15.498;2022-08-05T03:41:15;97063.16;;;16.98;86.38
57442;BME280;43284;47.042;15.498;2022-08-05T03:43:43;97058.84;;;16.97;86.37
57442;BME280;43284;47.042;15.498;2022-08-05T03:46:10;97066.25;;;16.92;85.36
57442;BME280;43284;47.042;15.498;2022-08-05T03:48:37;97067.78;;;16.83;85.66
57442;BME280;43284;47.042;15.498;2022-08-05T03:51:12;97071.81;;;16.76;86.32
57442;BME280;43284;47.042;15.498;2022-08-05T03:56:32;97067.00;;;16.70;86.58
57442;BME280;43284;47.042;15.498;2022-08-05T03:59:11;97072.41;;;16.68;86.24
57442;BME280;43284;47.042;15.498;2022-08-05T04:01:45;97065.69;;;16.64;86.11
57442;BME280;43284;47.042;15.498;2022-08-05T04:04:15;97066.50;;;16.65;86.49
57442;BME280;43284;47.042;15.498;2022-08-05T04:06:43;97067.97;;;16.69;86.64
57442;BME280;43284;47.042;15.498;2022-08-05T04:09:12;97067.88;;;16.71;86.96
57442;BME280;43284;47.042;15.498;2022-08-05T04:11:40;97074.56;;;16.75;86.56
57442;BME280;43284;47.042;15.498;2022-08-05T04:14:08;97074.34;;;16.78;86.63
57442;BME280;43284;47.042;15.498;2022-08-05T04:16:36;97073.38;;;16.79;86.92
57442;BME280;43284;47.042;15.498;2022-08-05T04:19:04;97068.03;;;16.80;86.17
57442;BME280;43284;47.042;15.498;2022-08-05T04:21:31;97070.69;;;16.80;86.36
57442;BME280;43284;47.042;15.498;2022-08-05T04:23:59;97070.56;;;16.82;86.42
57442;BME280;43284;47.042;15.498;2022-08-05T04:26:26;97076.34;;;16.87;86.48
57442;BME280;43284;47.042;15.498;2022-08-05T04:28:53;97069.97;;;16.89;86.30
57442;BME280;43284;47.042;15.498;2022-08-05T04:31:20;97071.06;;;16.87;86.44
57442;BME280;43284;47.042;15.498;2022-08-05T04:33:48;97064.81;;;16.88;86.74
57442;BME280;43284;47.042;15.498;2022-08-05T04:36:15;97071.66;;;16.91;86.34
57442;BME280;43284;47.042;15.498;2022-08-05T04:38:42;97061.84;;;16.93;86.41
57442;BME280;43284;47.042;15.498;2022-08-05T04:41:09;97060.75;;;16.95;86.33
57442;BME280;43284;47.042;15.498;2022-08-05T04:43:37;97056.22;;;16.97;86.82
57442;BME280;43284;47.042;15.498;2022-08-05T04:46:05;97065.56;;;17.01;86.35
57442;BME280;43284;47.042;15.498;2022-08-05T04:48:32;97061.75;;;17.05;86.24
57442;BME280;43284;47.042;15.498;2022-08-05T04:50:59;97069.53;;;17.07;86.40
57442;BME280;43284;47.042;15.498;2022-08-05T04:53:27;97066.78;;;17.08;86.24
57442;BME280;43284;47.042;15.498;2022-08-05T04:55:54;97067.25;;;17.14;86.13
57442;BME280;43284;47.042;15.498;2022-08-05T04:58:22;97067.63;;;17.20;86.58
57442;BME280;43284;47.042;15.498;2022-08-05T05:00:49;97062.97;;;17.24;86.38
57442;BME280;43284;47.042;15.498;2022-08-05T05:03:17;97059.84;;;17.30;86.07
57442;BME280;43284;47.042;15.498;2022-08-05T05:05:44;97062.03;;;17.36;86.09
57442;BME280;43284;47.042;15.498;2022-08-05T05:08:11;97063.44;;;17.40;86.60
57442;BME280;43284;47.042;15.498;2022-08-05T05:10:41;97069.22;;;17.45;85.96
57442;BME280;43284;47.042;15.498;2022-08-05T05:13:14;97067.91;;;17.51;86.19
57442;BME280;43284;47.042;15.498;2022-08-05T05:15:44;97069.13;;;17.58;86.18
57442;BME280;43284;47.042;15.498;2022-08-05T05:18:15;97065.28;;;17.62;86.05
57442;BME280;43284;47.042;15.498;2022-08-05T05:20:44;97068.13;;;17.70;85.24
57442;BME280;43284;47.042;15.498;2022-08-05T05:23:12;97065.00;;;17.77;86.03
57442;BME280;43284;47.042;15.498;2022-08-05T05:25:43;97059.16;;;17.84;85.80
57442;BME280;43284;47.042;15.498;2022-08-05T05:28:11;97063.09;;;17.90;85.71
57442;BME280;43284;47.042;15.498;2022-08-05T05:30:38;97060.69;;;17.98;85.77
57442;BME280;43284;47.042;15.498;2022-08-05T05:33:06;97054.66;;;18.07;85.78
57442;BME280;43284;47.042;15.498;2022-08-05T05:35:34;97059.34;;;18.15;85.28
57442;BME280;43284;47.042;15.498;2022-08-05T05:38:02;97061.13;;;18.26;85.95
57442;BME280;43284;47.042;15.498;2022-08-05T05:40:30;97057.94;;;18.32;85.38
57442;BME280;43284;47.042;15.498;2022-08-05T05:42:58;97057.22;;;18.41;85.71
57442;BME280;43284;47.042;15.498;2022-08-05T05:45:25;97054.63;;;18.51;85.96
57442;BME280;43284;47.042;15.498;2022-08-05T05:47:52;97050.38;;;18.60;85.73
57442;BME280;43284;47.042;15.498;2022-08-05T05:50:20;97056.34;;;18.73;85.42
57442;BME280;43284;47.042;15.498;2022-08-05T05:52:47;97054.78;;;18.82;85.64
57442;BME280;43284;47.042;15.498;2022-08-05T05:55:16;97050.13;;;18.95;85.04
57442;BME280;43284;47.042;15.498;2022-08-05T05:57:45;97049.94;;;19.08;84.63
57442;BME280;43284;47.042;15.498;2022-08-05T06:00:18;97041.91;;;19.19;84.02
57442;BME280;43284;47.042;15.498;2022-08-05T06:02:46;97055.53;;;19.35;80.73
57442;BME280;43284;47.042;15.498;2022-08-05T06:05:14;97049.31;;;19.46;80.30
57442;BME280;43284;47.042;15.498;2022-08-05T06:07:42;97048.53;;;19.65;81.66
57442;BME280;43284;47.042;15.498;2022-08-05T06:10:11;97050.44;;;19.74;81.08
57442;BME280;43284;47.042;15.498;2022-08-05T06:12:39;97047.38;;;19.89;79.14
57442;BME280;43284;47.042;15.498;2022-08-05T06:15:07;97047.31;;;20.10;79.54
57442;BME280;43284;47.042;15.498;2022-08-05T06:17:35;97041.03;;;20.30;78.75
57442;BME280;43284;47.042;15.498;2022-08-05T06:20:03;97043.44;;;20.43;76.90
57442;BME280;43284;47.042;15.498;2022-08-05T06:22:32;97044.84;;;20.57;75.68
57442;BME280;43284;47.042;15.498;2022-08-05T06:25:01;97044.28;;;20.83;75.62
57442;BME280;43284;47.042;15.498;2022-08-05T06:27:29;97046.78;;;20.94;75.46
57442;BME280;43284;47.042;15.498;2022-08-05T06:29:56;97042.56;;;21.01;74.38
57442;BME280;43284;47.042;15.498;2022-08-05T06:32:24;97040.31;;;21.16;75.34
57442;BME280;43284;47.042;15.498;2022-08-05T06:34:51;97041.25;;;21.25;73.60
57442;BME280;43284;47.042;15.498;2022-08-05T06:37:18;97040.38;;;21.34;74.55
57442;BME280;43284;47.042;15.498;2022-08-05T06:39:49;97033.63;;;21.59;72.36
57442;BME280;43284;47.042;15.498;2022-08-05T06:42:17;97041.31;;;21.62;73.67
57442;BME280;43284;47.042;15.498;2022-08-05T06:44:44;97028.09;;;21.80;69.59
57442;BME280;43284;47.042;15.498;2022-08-05T06:47:11;97030.44;;;21.83;70.93
57442;BME280;43284;47.042;15.498;2022-08-05T06:49:38;97026.34;;;21.89;70.88
57442;BME280;43284;47.042;15.498;2022-08-05T06:52:05;97021.19;;;22.05;70.09
57442;BME280;43284;47.042;15.498;2022-08-05T06:54:33;97032.63;;;22.15;69.42
57442;BME280;43284;47.042;15.498;2022-08-05T06:57:00;97023.34;;;22.19;67.77
57442;BME280;43284;47.042;15.498;2022-08-05T06:59:29;97026.81;;;22.30;67.86
57442;BME280;43284;47.042;15.498;2022-08-05T07:01:56;97033.28;;;22.45;66.62
57442;BME280;43284;47.042;15.498;2022-08-05T07:04:24;97025.38;;;22.53;67.10
57442;BME280;43284;47.042;15.498;2022-08-05T07:06:53;97036.31;;;22.68;64.75
57442;BME280;43284;47.042;15.498;2022-08-05T07:09:20;97033.56;;;22.78;64.39
57442;BME280;43284;47.042;15.498;2022-08-05T07:11:47;97021.34;;;22.93;65.20
57442;BME280;43284;47.042;15.498;2022-08-05T07:14:14;97023.66;;;23.06;64.67
57442;BME280;43284;47.042;15.498;2022-08-05T07:17:00;97025.22;;;23.17;62.21
57442;BME280;43284;47.042;15.498;2022-08-05T07:19:28;97021.94;;;23.23;62.38
57442;BME280;43284;47.042;15.498;2022-08-05T07:21:55;97019.63;;;23.28;62.05
57442;BME280;43284;47.042;15.498;2022-08-05T07:24:23;97018.22;;;23.42;61.59
57442;BME280;43284;47.042;15.498;2022-08-05T07:26:52;97018.47;;;23.65;62.34
57442;BME280;43284;47.042;15.498;2022-08-05T07:29:19;97014.72;;;23.76;60.31
57442;BME280;43284;47.042;15.498;2022-08-05T07:31:46;97008.78;;;23.90;60.26
57442;BME280;43284;47.042;15.498;2022-08-05T07:34:13;97008.59;;;23.92;60.13
57442;BME280;43284;47.042;15.498;2022-08-05T07:36:41;97013.28;;;23.98;60.39
57442;BME280;43284;47.042;15.498;2022-08-05T07:39:11;97011.19;;;24.10;59.48
57442;BME280;43284;47.042;15.498;2022-08-05T07:41:39;97013.16;;;24.16;60.62
57442;BME280;43284;47.042;15.498;2022-08-05T07:44:08;97011.03;;;24.27;61.65
57442;BME280;43284;47.042;15.498;2022-08-05T07:46:36;97014.38;;;24.30;60.74
57442;BME280;43284;47.042;15.498;2022-08-05T07:49:10;97007.03;;;24.40;59.87
57442;BME280;43284;47.042;15.498;2022-08-05T07:51:39;97003.59;;;24.56;58.76
57442;BME280;43284;47.042;15.498;2022-08-05T07:54:06;97006.09;;;24.57;59.46
57442;BME280;43284;47.042;15.498;2022-08-05T07:56:34;97010.75;;;24.63;59.37
57442;BME280;43284;47.042;15.498;2022-08-05T07:59:01;97005.44;;;24.72;58.69
57442;BME280;43284;47.042;15.498;2022-08-05T08:01:28;97004.56;;;24.79;58.33
57442;BME280;43284;47.042;15.498;2022-08-05T08:03:55;97009.44;;;24.84;58.59
57442;BME280;43284;47.042;15.498;2022-08-05T08:06:23;97004.06;;;25.00;58.44
57442;BME280;43284;47.042;15.498;2022-08-05T08:08:50;97004.22;;;25.07;58.11
57442;BME280;43284;47.042;15.498;2022-08-05T08:11:18;97006.72;;;25.17;58.68
57442;BME280;43284;47.042;15.498;2022-08-05T08:13:46;97002.72;;;25.21;59.00
57442;BME280;43284;47.042;15.498;2022-08-05T08:16:13;97009.91;;;25.28;58.48
57442;BME280;43284;47.042;15.498;2022-08-05T08:18:40;97013.69;;;25.51;57.16
57442;BME280;43284;47.042;15.498;2022-08-05T08:21:07;97016.34;;;25.59;59.62
57442;BME280;43284;47.042;15.498;2022-08-05T08:23:34;97007.97;;;25.62;58.31
57442;BME280;43284;47.042;15.498;2022-08-05T08:26:02;97016.28;;;25.67;59.19
57442;BME280;43284;47.042;15.498;2022-08-05T08:28:29;97008.25;;;25.75;57.60
57442;BME280;43284;47.042;15.498;2022-08-05T08:30:57;97008.75;;;25.79;57.54
57442;BME280;43284;47.042;15.498;2022-08-05T08:33:25;97001.19;;;25.82;58.36
57442;BME280;43284;47.042;15.498;2022-08-05T08:35:51;97000.69;;;25.87;57.56
57442;BME280;43284;47.042;15.498;2022-08-05T08:38:19;96998.28;;;26.00;57.68
57442;BME280;43284;47.042;15.498;2022-08-05T08:40:46;96994.25;;;26.04;57.47
57442;BME280;43284;47.042;15.498;2022-08-05T08:43:15;96995.03;;;26.13;58.17
57442;BME280;43284;47.042;15.498;2022-08-05T08:45:46;96985.78;;;26.24;56.35
57442;BME280;43284;47.042;15.498;2022-08-05T08:48:18;96990.72;;;26.35;56.86
57442;BME280;43284;47.042;15.498;2022-08-05T08:50:47;96989.63;;;26.44;58.29
57442;BME280;43284;47.042;15.498;2022-08-05T08:53:16;96982.78;;;26.88;55.30
57442;BME280;43284;47.042;15.498;2022-08-05T08:55:45;96987.84;;;26.83;54.02
57442;BME280;43284;47.042;15.498;2022-08-05T08:58:14;96985.16;;;26.83;54.79
57442;BME280;43284;47.042;15.498;2022-08-05T09:00:42;96981.47;;;26.84;55.87
57442;BME280;43284;47.042;15.498;2022-08-05T09:03:10;96977.97;;;26.83;56.55
57442;BME280;43284;47.042;15.498;2022-08-05T09:05:38;96979.66;;;26.99;56.68
57442;BME280;43284;47.042;15.498;2022-08-05T09:08:05;96981.03;;;26.95;55.30
57442;BME280;43284;47.042;15.498;2022-08-05T09:10:32;96979.38;;;27.09;56.52
57442;BME280;43284;47.042;15.498;2022-08-05T09:12:59;96982.53;;;27.12;54.85
57442;BME280;43284;47.042;15.498;2022-08-05T09:15:28;96979.47;;;27.16;53.03
57442;BME280;43284;47.042;15.498;2022-08-05T09:17:55;96981.84;;;27.33;53.92
57442;BME280;43284;47.042;15.498;2022-08-05T09:20:24;96982.59;;;27.42;56.33
57442;BME280;43284;47.042;15.498;2022-08-05T09:23:07;96973.97;;;27.47;53.00
57442;BME280;43284;47.042;15.498;2022-08-05T09:25:41;96967.81;;;27.83;51.48
57442;BME280;43284;47.042;15.498;2022-08-05T09:28:19;96965.88;;;27.77;53.28
57442;BME280;43284;47.042;15.498;2022-08-05T09:30:55;96962.94;;;27.86;51.45
57442;BME280;43284;47.042;15.498;2022-08-05T09:33:24;96970.69;;;27.96;53.43
57442;BME280;43284;47.042;15.498;2022-08-05T09:36:01;96963.47;;;27.97;52.22
57442;BME280;43284;47.042;15.498;2022-08-05T09:38:29;96961.38;;;28.13;50.38
57442;BME280;43284;47.042;15.498;2022-08-05T09:41:05;96955.94;;;28.28;51.46
57442;BME280;43284;47.042;15.498;2022-08-05T09:43:34;96955.72;;;28.45;53.10
57442;BME280;43284;47.042;15.498;2022-08-05T09:46:04;96958.50;;;28.51;49.74
57442;BME280;43284;47.042;15.498;2022-08-05T09:48:33;96951.91;;;28.54;50.71
57442;BME280;43284;47.042;15.498;2022-08-05T09:51:03;96950.50;;;28.58;50.10
57442;BME280;43284;47.042;15.498;2022-08-05T09:53:50;96955.19;;;28.78;50.34
57442;BME280;43284;47.042;15.498;2022-08-05T09:56:27;96951.44;;;29.00;50.29
57442;BME280;43284;47.042;15.498;2022-08-05T09:59:08;96946.25;;;28.99;49.53
57442;BME280;43284;47.042;15.498;2022-08-05T10:01:37;96950.59;;;29.00;49.48
57442;BME280;43284;47.042;15.498;2022-08-05T10:04:10;96942.09;;;28.96;46.96
57442;BME280;43284;47.042;15.498;2022-08-05T10:06:41;96946.09;;;29.35;47.18
57442;BME280;43284;47.042;15.498;2022-08-05T10:09:16;96943.16;;;29.30;48.70
57442;BME280;43284;47.042;15.498;2022-08-05T10:11:44;96941.34;;;29.37;48.39
57442;BME280;43284;47.042;15.498;2022-08-05T10:14:31;96951.31;;;29.43;50.21
57442;BME280;43284;47.042;15.498;2022-08-05T10:17:12;96938.31;;;29.53;48.00
57442;BME280;43284;47.042;15.498;2022-08-05T10:19:40;96938.56;;;29.58;47.28
57442;BME280;43284;47.042;15.498;2022-08-05T10:22:11;96938.16;;;29.68;48.67
57442;BME280;43284;47.042;15.498;2022-08-05T10:24:39;96932.78;;;29.68;47.33
57442;BME280;43284;47.042;15.498;2022-08-05T10:27:08;96925.38;;;29.77;47.52
57442;BME280;43284;47.042;15.498;2022-08-05T10:29:38;96926.22;;;29.77;48.59
57442;BME280;43284;47.042;15.498;2022-08-05T10:32:06;96918.19;;;29.97;47.90
57442;BME280;43284;47.042;15.498;2022-08-05T10:34:34;96917.78;;;30.01;47.00
57442;BME280;43284;47.042;15.498;2022-08-05T10:37:01;96916.75;;;30.15;46.54
57442;BME280;43284;47.042;15.498;2022-08-05T10:39:32;96913.44;;;30.19;46.93
57442;BME280;43284;47.042;15.498;2022-08-05T10:44:31;96917.69;;;30.35;45.69
57442;BME280;43284;47.042;15.498;2022-08-05T10:47:10;96917.88;;;30.41;45.14
57442;BME280;43284;47.042;15.498;2022-08-05T10:50:01;96912.06;;;30.44;47.21
57442;BME280;43284;47.042;15.498;2022-08-05T10:52:42;96915.19;;;30.47;47.52
57442;BME280;43284;47.042;15.498;2022-08-05T10:55:13;96911.47;;;30.48;45.55
57442;BME280;43284;47.042;15.498;2022-08-05T10:57:40;96917.50;;;30.64;46.50
57442;BME280;43284;47.042;15.498;2022-08-05T11:00:15;96909.78;;;30.67;46.85
57442;BME280;43284;47.042;15.498;2022-08-05T11:03:13;96913.53;;;30.73;45.55
57442;BME280;43284;47.042;15.498;2022-08-05T11:06:03;96898.78;;;30.82;46.03
57442;BME280;43284;47.042;15.498;2022-08-05T11:08:31;96911.28;;;30.96;46.29
57442;BME280;43284;47.042;15.498;2022-08-05T11:11:32;96913.28;;;31.21;47.52
57442;BME280;43284;47.042;15.498;2022-08-05T11:14:04;96912.22;;;31.22;45.57
57442;BME280;43284;47.042;15.498;2022-08-05T11:16:32;96917.22;;;31.32;46.25
57442;BME280;43284;47.042;15.498;2022-08-05T11:19:28;96909.72;;;31.34;46.70
57442;BME280;43284;47.042;15.498;2022-08-05T11:22:49;96905.78;;;31.43;45.88
57442;BME280;43284;47.042;15.498;2022-08-05T11:25:29;96899.72;;;31.41;46.52
57442;BME280;43284;47.042;15.498;2022-08-05T11:33:34;96908.81;;;31.67;46.18
57442;BME280;43284;47.042;15.498;2022-08-05T11:36:03;96905.44;;;31.78;45.87
57442;BME280;43284;47.042;15.498;2022-08-05T11:41:16;96907.59;;;31.94;42.36
57442;BME280;43284;47.042;15.498;2022-08-05T11:44:01;96901.38;;;32.00;44.42
57442;BME280;43284;47.042;15.498;2022-08-05T11:46:51;96898.66;;;32.00;43.79
57442;BME280;43284;47.042;15.498;2022-08-05T11:49:21;96898.59;;;32.14;45.19
57442;BME280;43284;47.042;15.498;2022-08-05T11:51:51;96896.13;;;32.12;43.69
57442;BME280;43284;47.042;15.498;2022-08-05T11:54:28;96902.16;;;32.14;43.49
57442;BME280;43284;47.042;15.498;2022-08-05T11:57:02;96891.84;;;32.23;43.55
57442;BME280;43284;47.042;15.498;2022-08-05T11:59:31;96898.69;;;32.32;44.26
57442;BME280;43284;47.042;15.498;2022-08-05T12:04:46;96896.84;;;32.51;45.70
57442;BME280;43284;47.042;15.498;2022-08-05T12:07:17;96895.53;;;32.67;43.65
57442;BME280;43284;47.042;15.498;2022-08-05T12:09:52;96892.78;;;32.92;44.28
57442;BME280;43284;47.042;15.498;2022-08-05T12:12:23;96896.84;;;33.01;43.61
57442;BME280;43284;47.042;15.498;2022-08-05T12:14:52;96891.66;;;33.07;42.36
57442;BME280;43284;47.042;15.498;2022-08-05T12:17:19;96888.88;;;33.13;41.90
57442;BME280;43284;47.042;15.498;2022-08-05T12:19:53;96893.47;;;33.31;43.31
57442;BME280;43284;47.042;15.498;2022-08-05T12:22:25;96884.47;;;33.49;43.38
57442;BME280;43284;47.042;15.498;2022-08-05T12:24:54;96890.38;;;33.64;42.03
57442;BME280;43284;47.042;15.498;2022-08-05T12:27:24;96879.22;;;33.73;41.42
57442;BME280;43284;47.042;15.498;2022-08-05T12:30:06;96886.44;;;33.79;42.04
57442;BME280;43284;47.042;15.498;2022-08-05T12:32:45;96881.38;;;33.82;40.92
57442;BME280;43284;47.042;15.498;2022-08-05T12:35:17;96883.31;;;33.94;42.28
57442;BME280;43284;47.042;15.498;2022-08-05T12:37:46;96875.84;;;33.89;41.03
57442;BME280;43284;47.042;15.498;2022-08-05T12:40:15;96872.38;;;34.00;41.68
57442;BME280;43284;47.042;15.498;2022-08-05T12:42:43;96863.47;;;34.12;42.66
57442;BME280;43284;47.042;15.498;2022-08-05T12:45:12;96858.31;;;33.92;39.13
57442;BME280;43284;47.042;15.498;2022-08-05T12:47:39;96856.97;;;34.13;41.19
57442;BME280;43284;47.042;15.498;2022-08-05T12:50:16;96860.06;;;34.16;39.50
57442;BME280;43284;47.042;15.498;2022-08-05T12:52:55;96858.53;;;34.20;40.50
57442;BME280;43284;47.042;15.498;2022-08-05T12:55:26;96851.34;;;34.26;40.17
57442;BME280;43284;47.042;15.498;2022-08-05T12:57:55;96855.72;;;34.39;40.07
57442;BME280;43284;47.042;15.498;2022-08-05T13:00:25;96854.69;;;34.40;40.98
57442;BME280;43284;47.042;15.498;2022-08-05T13:02:55;96849.72;;;34.37;39.84
57442;BME280;43284;47.042;15.498;2022-08-05T13:05:24;96840.16;;;34.46;39.72
57442;BME280;43284;47.042;15.498;2022-08-05T13:07:57;96850.81;;;34.59;39.33
57442;BME280;43284;47.042;15.498;2022-08-05T13:10:30;96844.78;;;34.81;38.24
57442;BME280;43284;47.042;15.498;2022-08-05T13:12:58;96835.59;;;34.94;39.89
57442;BME280;43284;47.042;15.498;2022-08-05T13:15:30;96833.81;;;34.99;38.09
57442;BME280;43284;47.042;15.498;2022-08-05T13:18:00;96842.06;;;35.04;39.39
57442;BME280;43284;47.042;15.498;2022-08-05T13:20:35;96831.69;;;35.13;38.45
57442;BME280;43284;47.042;15.498;2022-08-05T13:23:03;96828.47;;;35.04;39.10
57442;BME280;43284;47.042;15.498;2022-08-05T13:25:30;96828.97;;;35.01;38.99
57442;BME280;43284;47.042;15.498;2022-08-05T13:27:58;96825.31;;;35.07;37.99
57442;BME280;43284;47.042;15.498;2022-08-05T13:30:25;96818.31;;;35.23;39.38